sensor_id;sensor_type;location;lat;lon;timestamp;P1;durP1;ratioP1;P2;durP2;ratioP2
15393;SDS011;7795;47.986;11.868;2023-06-24T00:02:09;2.67;;;2.47;;
15393;SDS011;7795;47.986;11.868;2023-06-24T00:04:36;2.43;;;2.20;;
15393;SDS011;7795;47.986;11.868;2023-06-24T00:07:02;2.90;;;2.40;;
15393;SDS011;7795;47.986;11.868;2023-06-24T00:09:28;2.43;;;2.00;;
15393;SDS011;7795;47.986;11.868;2023-06-24T00:11:57;2.43;;;1.90;;
15393;SDS011;7795;47.986;11.868;2023-06-24T00:14:24;2.67;;;2.17;;
15393;SDS011;7795;47.986;11.868;2023-06-24T00:16:51;3.50;;;2.47;;
15393;SDS011;7795;47.986;11.868;2023-06-24T00:19:18;3.53;;;3.23;;
15393;SDS011;7795;47.986;11.868;2023-06-24T00:21:45;4.30;;;3.47;;
15393;SDS011;7795;47.986;11.868;2023-06-24T00:24:11;3.73;;;3.13;;
15393;SDS011;7795;47.986;11.868;2023-06-24T00:26:37;3.60;;;3.30;;
15393;SDS011;7795;47.986;11.868;2023-06-24T00:29:03;3.13;;;2.27;;
15393;SDS011;7795;47.986;11.868;2023-06-24T00:31:28;2.37;;;2.17;;
15393;SDS011;7795;47.986;11.868;2023-06-24T00:33:54;2.17;;;1.90;;
15393;SDS011;7795;47.986;11.868;2023-06-24T00:36:20;2.70;;;2.20;;
15393;SDS011;7795;47.986;11.868;2023-06-24T00:38:48;2.90;;;1.90;;
15393;SDS011;7795;47.986;11.868;2023-06-24T00:41:14;2.47;;;2.00;;
15393;SDS011;7795;47.986;11.868;2023-06-24T00:43:42;2.60;;;2.40;;
15393;SDS011;7795;47.986;11.868;2023-06-24T00:46:07;2.23;;;2.00;;
15393;SDS011;7795;47.986;11.868;2023-06-24T00:48:33;2.23;;;1.90;;
15393;SDS011;7795;47.986;11.868;2023-06-24T00:50:59;2.33;;;2.03;;
15393;SDS011;7795;47.986;11.868;2023-06-24T00:53:25;2.67;;;1.97;;
15393;SDS011;7795;47.986;11.868;2023-06-24T00:55:52;2.40;;;2.03;;
15393;SDS011;7795;47.986;11.868;2023-06-24T00:58:20;2.27;;;1.93;;
15393;SDS011;7795;47.986;11.868;2023-06-24T01:00:47;2.07;;;1.83;;
15393;SDS011;7795;47.986;11.868;2023-06-24T01:03:22;2.13;;;1.90;;
15393;SDS011;7795;47.986;11.868;2023-06-24T01:05:48;2.50;;;2.30;;
15393;SDS011;7795;47.986;11.868;2023-06-24T01:08:14;2.63;;;2.10;;
15393;SDS011;7795;47.986;11.868;2023-06-24T01:10:40;2.37;;;2.03;;
15393;SDS011;7795;47.986;11.868;2023-06-24T01:13:08;2.20;;;2.00;;
15393;SDS011;7795;47.986;11.868;2023-06-24T01:15:33;2.77;;;1.87;;
15393;SDS011;7795;47.986;11.868;2023-06-24T01:18:01;3.07;;;2.50;;
15393;SDS011;7795;47.986;11.868;2023-06-24T01:20:34;2.60;;;2.20;;
15393;SDS011;7795;47.986;11.868;2023-06-24T01:26:21;2.57;;;2.30;;
15393;SDS011;7795;47.986;11.868;2023-06-24T01:29:06;2.40;;;2.10;;
15393;SDS011;7795;47.986;11.868;2023-06-24T01:31:48;2.20;;;2.00;;
15393;SDS011;7795;47.986;11.868;2023-06-24T01:34:18;2.33;;;2.13;;
15393;SDS011;7795;47.986;11.868;2023-06-24T01:36:52;2.63;;;2.43;;
15393;SDS011;7795;47.986;11.868;2023-06-24T01:39:25;2.43;;;2.03;;
15393;SDS011;7795;47.986;11.868;2023-06-24T01:41:57;4.97;;;3.30;;
15393;SDS011;7795;47.986;11.868;2023-06-24T01:44:28;9.43;;;6.20;;
15393;SDS011;7795;47.986;11.868;2023-06-24T01:46:57;3.73;;;3.00;;
15393;SDS011;7795;47.986;11.868;2023-06-24T01:49:24;3.60;;;2.77;;
15393;SDS011;7795;47.986;11.868;2023-06-24T01:51:54;2.83;;;2.57;;
15393;SDS011;7795;47.986;11.868;2023-06-24T01:54:22;2.40;;;2.20;;
15393;SDS011;7795;47.986;11.868;2023-06-24T01:56:49;3.40;;;2.57;;
15393;SDS011;7795;47.986;11.868;2023-06-24T01:59:16;2.53;;;2.30;;
15393;SDS011;7795;47.986;11.868;2023-06-24T02:01:45;2.80;;;2.20;;
15393;SDS011;7795;47.986;11.868;2023-06-24T02:04:12;2.80;;;2.60;;
15393;SDS011;7795;47.986;11.868;2023-06-24T02:06:40;4.07;;;2.40;;
15393;SDS011;7795;47.986;11.868;2023-06-24T02:09:07;3.20;;;2.40;;
15393;SDS011;7795;47.986;11.868;2023-06-24T02:11:35;5.23;;;2.47;;
15393;SDS011;7795;47.986;11.868;2023-06-24T02:14:02;2.87;;;2.47;;
15393;SDS011;7795;47.986;11.868;2023-06-24T02:16:30;2.93;;;2.57;;
15393;SDS011;7795;47.986;11.868;2023-06-24T02:18:58;2.70;;;2.40;;
15393;SDS011;7795;47.986;11.868;2023-06-24T02:21:26;3.50;;;3.10;;
15393;SDS011;7795;47.986;11.868;2023-06-24T02:23:53;3.40;;;2.63;;
15393;SDS011;7795;47.986;11.868;2023-06-24T02:26:20;3.53;;;2.50;;
15393;SDS011;7795;47.986;11.868;2023-06-24T02:28:47;2.77;;;2.50;;
15393;SDS011;7795;47.986;11.868;2023-06-24T02:31:14;2.87;;;2.60;;
15393;SDS011;7795;47.986;11.868;2023-06-24T02:33:41;2.97;;;2.67;;
15393;SDS011;7795;47.986;11.868;2023-06-24T02:36:07;2.77;;;2.33;;
15393;SDS011;7795;47.986;11.868;2023-06-24T02:38:35;2.90;;;2.33;;
15393;SDS011;7795;47.986;11.868;2023-06-24T02:41:00;2.90;;;2.60;;
15393;SDS011;7795;47.986;11.868;2023-06-24T02:43:29;2.67;;;2.30;;
15393;SDS011;7795;47.986;11.868;2023-06-24T02:45:55;3.40;;;2.47;;
15393;SDS011;7795;47.986;11.868;2023-06-24T02:48:21;3.23;;;2.93;;
15393;SDS011;7795;47.986;11.868;2023-06-24T02:50:47;2.60;;;2.40;;
15393;SDS011;7795;47.986;11.868;2023-06-24T02:53:13;3.17;;;2.80;;
15393;SDS011;7795;47.986;11.868;2023-06-24T02:55:41;2.90;;;2.40;;
15393;SDS011;7795;47.986;11.868;2023-06-24T02:58:09;2.50;;;2.20;;
15393;SDS011;7795;47.986;11.868;2023-06-24T03:00:35;3.10;;;2.57;;
15393;SDS011;7795;47.986;11.868;2023-06-24T03:03:02;4.40;;;2.93;;
15393;SDS011;7795;47.986;11.868;2023-06-24T03:05:29;2.97;;;2.50;;
15393;SDS011;7795;47.986;11.868;2023-06-24T03:07:56;2.77;;;2.43;;
15393;SDS011;7795;47.986;11.868;2023-06-24T03:10:22;3.63;;;2.70;;
15393;SDS011;7795;47.986;11.868;2023-06-24T03:12:50;2.77;;;2.17;;
15393;SDS011;7795;47.986;11.868;2023-06-24T03:15:16;2.40;;;2.20;;
15393;SDS011;7795;47.986;11.868;2023-06-24T03:17:41;6.10;;;2.60;;
15393;SDS011;7795;47.986;11.868;2023-06-24T03:20:09;3.00;;;2.70;;
15393;SDS011;7795;47.986;11.868;2023-06-24T03:22:36;2.80;;;2.50;;
15393;SDS011;7795;47.986;11.868;2023-06-24T03:25:02;2.60;;;2.40;;
15393;SDS011;7795;47.986;11.868;2023-06-24T03:27:28;3.23;;;2.40;;
15393;SDS011;7795;47.986;11.868;2023-06-24T03:29:55;3.00;;;2.70;;
15393;SDS011;7795;47.986;11.868;2023-06-24T03:32:20;2.93;;;2.53;;
15393;SDS011;7795;47.986;11.868;2023-06-24T03:34:46;6.00;;;4.80;;
15393;SDS011;7795;47.986;11.868;2023-06-24T03:37:12;12.10;;;9.93;;
15393;SDS011;7795;47.986;11.868;2023-06-24T03:39:38;15.43;;;12.10;;
15393;SDS011;7795;47.986;11.868;2023-06-24T03:42:03;10.83;;;8.37;;
15393;SDS011;7795;47.986;11.868;2023-06-24T03:44:29;6.83;;;5.47;;
15393;SDS011;7795;47.986;11.868;2023-06-24T03:46:57;5.13;;;4.00;;
15393;SDS011;7795;47.986;11.868;2023-06-24T03:49:22;3.93;;;3.00;;
15393;SDS011;7795;47.986;11.868;2023-06-24T03:51:48;3.20;;;2.90;;
15393;SDS011;7795;47.986;11.868;2023-06-24T03:54:14;2.90;;;2.60;;
15393;SDS011;7795;47.986;11.868;2023-06-24T03:56:40;3.80;;;2.73;;
15393;SDS011;7795;47.986;11.868;2023-06-24T03:59:05;4.43;;;2.87;;
15393;SDS011;7795;47.986;11.868;2023-06-24T04:01:32;3.50;;;2.73;;
15393;SDS011;7795;47.986;11.868;2023-06-24T04:04:00;2.63;;;2.40;;
15393;SDS011;7795;47.986;11.868;2023-06-24T04:06:25;3.00;;;2.67;;
15393;SDS011;7795;47.986;11.868;2023-06-24T04:08:51;3.60;;;2.60;;
15393;SDS011;7795;47.986;11.868;2023-06-24T04:11:17;4.13;;;2.47;;
15393;SDS011;7795;47.986;11.868;2023-06-24T04:13:43;2.70;;;2.47;;
15393;SDS011;7795;47.986;11.868;2023-06-24T04:16:09;2.80;;;2.60;;
15393;SDS011;7795;47.986;11.868;2023-06-24T04:18:34;7.60;;;3.07;;
15393;SDS011;7795;47.986;11.868;2023-06-24T04:21:05;4.90;;;2.83;;
15393;SDS011;7795;47.986;11.868;2023-06-24T04:23:34;5.17;;;3.40;;
15393;SDS011;7795;47.986;11.868;2023-06-24T04:26:00;3.03;;;2.40;;
15393;SDS011;7795;47.986;11.868;2023-06-24T04:28:25;3.10;;;2.60;;
15393;SDS011;7795;47.986;11.868;2023-06-24T04:30:51;2.90;;;2.60;;
15393;SDS011;7795;47.986;11.868;2023-06-24T04:33:17;2.93;;;2.70;;
15393;SDS011;7795;47.986;11.868;2023-06-24T04:35:43;3.07;;;2.40;;
15393;SDS011;7795;47.986;11.868;2023-06-24T04:38:10;4.03;;;2.90;;
15393;SDS011;7795;47.986;11.868;2023-06-24T04:40:36;5.27;;;2.97;;
15393;SDS011;7795;47.986;11.868;2023-06-24T04:43:02;2.93;;;2.70;;
15393;SDS011;7795;47.986;11.868;2023-06-24T04:45:28;3.20;;;2.90;;
15393;SDS011;7795;47.986;11.868;2023-06-24T04:47:54;3.53;;;2.70;;
15393;SDS011;7795;47.986;11.868;2023-06-24T04:50:19;3.03;;;2.73;;
15393;SDS011;7795;47.986;11.868;2023-06-24T04:52:45;2.90;;;2.60;;
15393;SDS011;7795;47.986;11.868;2023-06-24T04:55:18;3.70;;;2.97;;
15393;SDS011;7795;47.986;11.868;2023-06-24T04:57:44;4.50;;;2.93;;
15393;SDS011;7795;47.986;11.868;2023-06-24T05:00:10;3.37;;;3.00;;
15393;SDS011;7795;47.986;11.868;2023-06-24T05:02:36;5.30;;;4.33;;
15393;SDS011;7795;47.986;11.868;2023-06-24T05:05:02;4.40;;;3.50;;
15393;SDS011;7795;47.986;11.868;2023-06-24T05:07:28;3.60;;;3.13;;
15393;SDS011;7795;47.986;11.868;2023-06-24T05:09:53;3.83;;;2.73;;
15393;SDS011;7795;47.986;11.868;2023-06-24T05:12:20;3.03;;;2.73;;
15393;SDS011;7795;47.986;11.868;2023-06-24T05:14:49;2.87;;;2.60;;
15393;SDS011;7795;47.986;11.868;2023-06-24T05:17:15;3.00;;;2.70;;
15393;SDS011;7795;47.986;11.868;2023-06-24T05:19:41;2.80;;;2.50;;
15393;SDS011;7795;47.986;11.868;2023-06-24T05:22:06;3.10;;;2.53;;
15393;SDS011;7795;47.986;11.868;2023-06-24T05:24:32;3.07;;;2.77;;
15393;SDS011;7795;47.986;11.868;2023-06-24T05:27:03;3.33;;;2.77;;
15393;SDS011;7795;47.986;11.868;2023-06-24T05:29:32;4.00;;;2.43;;
15393;SDS011;7795;47.986;11.868;2023-06-24T05:31:58;2.90;;;2.63;;
15393;SDS011;7795;47.986;11.868;2023-06-24T05:34:24;2.90;;;2.50;;
15393;SDS011;7795;47.986;11.868;2023-06-24T05:36:49;3.57;;;3.10;;
15393;SDS011;7795;47.986;11.868;2023-06-24T05:39:15;5.30;;;3.20;;
15393;SDS011;7795;47.986;11.868;2023-06-24T05:41:41;3.00;;;2.70;;
15393;SDS011;7795;47.986;11.868;2023-06-24T05:44:07;3.30;;;2.80;;
15393;SDS011;7795;47.986;11.868;2023-06-24T05:46:38;3.17;;;2.60;;
15393;SDS011;7795;47.986;11.868;2023-06-24T05:49:04;2.30;;;2.10;;
15393;SDS011;7795;47.986;11.868;2023-06-24T05:51:29;4.23;;;2.80;;
15393;SDS011;7795;47.986;11.868;2023-06-24T05:53:55;3.03;;;2.53;;
15393;SDS011;7795;47.986;11.868;2023-06-24T05:56:21;2.37;;;2.17;;
15393;SDS011;7795;47.986;11.868;2023-06-24T05:58:47;2.67;;;2.43;;
15393;SDS011;7795;47.986;11.868;2023-06-24T06:01:13;3.27;;;2.60;;
15393;SDS011;7795;47.986;11.868;2023-06-24T06:03:40;2.53;;;2.33;;
15393;SDS011;7795;47.986;11.868;2023-06-24T06:06:06;2.90;;;2.60;;
15393;SDS011;7795;47.986;11.868;2023-06-24T06:08:32;3.77;;;2.83;;
15393;SDS011;7795;47.986;11.868;2023-06-24T06:10:57;2.30;;;2.10;;
15393;SDS011;7795;47.986;11.868;2023-06-24T06:13:24;2.27;;;2.03;;
15393;SDS011;7795;47.986;11.868;2023-06-24T06:15:49;3.83;;;2.63;;
15393;SDS011;7795;47.986;11.868;2023-06-24T06:18:15;3.23;;;2.67;;
15393;SDS011;7795;47.986;11.868;2023-06-24T06:20:42;2.97;;;2.10;;
15393;SDS011;7795;47.986;11.868;2023-06-24T06:23:08;2.90;;;2.17;;
15393;SDS011;7795;47.986;11.868;2023-06-24T06:25:35;2.60;;;2.20;;
15393;SDS011;7795;47.986;11.868;2023-06-24T06:28:02;3.80;;;2.20;;
15393;SDS011;7795;47.986;11.868;2023-06-24T06:30:28;2.53;;;2.33;;
15393;SDS011;7795;47.986;11.868;2023-06-24T06:32:54;2.73;;;2.30;;
15393;SDS011;7795;47.986;11.868;2023-06-24T06:35:19;3.33;;;2.53;;
15393;SDS011;7795;47.986;11.868;2023-06-24T06:37:46;3.27;;;2.37;;
15393;SDS011;7795;47.986;11.868;2023-06-24T06:40:17;3.03;;;2.07;;
15393;SDS011;7795;47.986;11.868;2023-06-24T06:42:42;3.47;;;2.67;;
15393;SDS011;7795;47.986;11.868;2023-06-24T06:45:08;3.80;;;2.50;;
15393;SDS011;7795;47.986;11.868;2023-06-24T06:47:35;2.57;;;2.30;;
15393;SDS011;7795;47.986;11.868;2023-06-24T06:50:01;4.13;;;2.80;;
15393;SDS011;7795;47.986;11.868;2023-06-24T06:52:26;3.40;;;2.20;;
15393;SDS011;7795;47.986;11.868;2023-06-24T06:54:56;2.13;;;1.90;;
15393;SDS011;7795;47.986;11.868;2023-06-24T06:57:22;3.33;;;2.20;;
15393;SDS011;7795;47.986;11.868;2023-06-24T06:59:48;2.70;;;2.50;;
15393;SDS011;7795;47.986;11.868;2023-06-24T07:02:17;2.40;;;2.20;;
15393;SDS011;7795;47.986;11.868;2023-06-24T07:04:42;2.43;;;2.23;;
15393;SDS011;7795;47.986;11.868;2023-06-24T07:07:08;3.23;;;2.27;;
15393;SDS011;7795;47.986;11.868;2023-06-24T07:09:34;2.27;;;2.07;;
15393;SDS011;7795;47.986;11.868;2023-06-24T07:12:01;2.97;;;2.20;;
15393;SDS011;7795;47.986;11.868;2023-06-24T07:14:27;2.67;;;2.00;;
15393;SDS011;7795;47.986;11.868;2023-06-24T07:16:53;2.03;;;1.83;;
15393;SDS011;7795;47.986;11.868;2023-06-24T07:19:19;2.87;;;1.90;;
15393;SDS011;7795;47.986;11.868;2023-06-24T07:21:45;2.30;;;2.10;;
15393;SDS011;7795;47.986;11.868;2023-06-24T07:24:10;2.30;;;2.10;;
15393;SDS011;7795;47.986;11.868;2023-06-24T07:26:36;2.20;;;2.00;;
15393;SDS011;7795;47.986;11.868;2023-06-24T07:29:05;3.07;;;2.03;;
15393;SDS011;7795;47.986;11.868;2023-06-24T07:31:31;2.20;;;1.90;;
15393;SDS011;7795;47.986;11.868;2023-06-24T07:33:56;3.77;;;2.50;;
15393;SDS011;7795;47.986;11.868;2023-06-24T07:36:22;4.27;;;2.57;;
15393;SDS011;7795;47.986;11.868;2023-06-24T07:38:48;3.80;;;2.30;;
15393;SDS011;7795;47.986;11.868;2023-06-24T07:41:14;2.33;;;2.13;;
15393;SDS011;7795;47.986;11.868;2023-06-24T07:43:39;2.97;;;2.03;;
15393;SDS011;7795;47.986;11.868;2023-06-24T07:46:07;3.00;;;2.30;;
15393;SDS011;7795;47.986;11.868;2023-06-24T07:48:32;2.57;;;2.00;;
15393;SDS011;7795;47.986;11.868;2023-06-24T07:50:58;2.30;;;2.10;;
15393;SDS011;7795;47.986;11.868;2023-06-24T07:53:24;2.80;;;2.47;;
15393;SDS011;7795;47.986;11.868;2023-06-24T07:55:50;2.47;;;2.13;;
15393;SDS011;7795;47.986;11.868;2023-06-24T07:58:16;1.90;;;1.70;;
15393;SDS011;7795;47.986;11.868;2023-06-24T08:00:41;2.70;;;2.50;;
15393;SDS011;7795;47.986;11.868;2023-06-24T08:03:09;3.03;;;2.20;;
15393;SDS011;7795;47.986;11.868;2023-06-24T08:05:34;2.60;;;2.27;;
15393;SDS011;7795;47.986;11.868;2023-06-24T08:08:00;3.63;;;2.53;;
15393;SDS011;7795;47.986;11.868;2023-06-24T08:10:26;2.33;;;2.10;;
15393;SDS011;7795;47.986;11.868;2023-06-24T08:12:52;2.60;;;1.83;;
15393;SDS011;7795;47.986;11.868;2023-06-24T08:15:17;2.43;;;2.13;;
15393;SDS011;7795;47.986;11.868;2023-06-24T08:17:43;3.63;;;1.83;;
15393;SDS011;7795;47.986;11.868;2023-06-24T08:20:11;2.60;;;1.90;;
15393;SDS011;7795;47.986;11.868;2023-06-24T08:22:37;2.90;;;2.30;;
15393;SDS011;7795;47.986;11.868;2023-06-24T08:25:03;2.13;;;1.93;;
15393;SDS011;7795;47.986;11.868;2023-06-24T08:27:30;2.17;;;1.93;;
15393;SDS011;7795;47.986;11.868;2023-06-24T08:29:55;2.30;;;2.10;;
15393;SDS011;7795;47.986;11.868;2023-06-24T08:32:21;2.30;;;2.10;;
15393;SDS011;7795;47.986;11.868;2023-06-24T08:34:47;2.70;;;2.13;;
15393;SDS011;7795;47.986;11.868;2023-06-24T08:37:14;2.70;;;2.50;;
15393;SDS011;7795;47.986;11.868;2023-06-24T08:39:40;3.50;;;3.20;;
15393;SDS011;7795;47.986;11.868;2023-06-24T08:42:06;2.63;;;2.33;;
15393;SDS011;7795;47.986;11.868;2023-06-24T08:44:32;2.67;;;2.20;;
15393;SDS011;7795;47.986;11.868;2023-06-24T08:46:57;2.30;;;2.10;;
15393;SDS011;7795;47.986;11.868;2023-06-24T08:49:25;2.13;;;1.83;;
15393;SDS011;7795;47.986;11.868;2023-06-24T08:51:54;4.57;;;2.90;;
15393;SDS011;7795;47.986;11.868;2023-06-24T08:54:26;3.47;;;2.40;;
15393;SDS011;7795;47.986;11.868;2023-06-24T08:56:53;2.30;;;2.10;;
15393;SDS011;7795;47.986;11.868;2023-06-24T08:59:19;2.70;;;2.33;;
15393;SDS011;7795;47.986;11.868;2023-06-24T09:01:45;5.53;;;2.13;;
15393;SDS011;7795;47.986;11.868;2023-06-24T09:04:11;3.83;;;2.17;;
15393;SDS011;7795;47.986;11.868;2023-06-24T09:06:37;2.55;;;2.20;;
15393;SDS011;7795;47.986;11.868;2023-06-24T09:09:03;3.20;;;2.20;;
15393;SDS011;7795;47.986;11.868;2023-06-24T09:11:31;8.02;;;4.65;;
15393;SDS011;7795;47.986;11.868;2023-06-24T09:13:57;3.25;;;2.75;;
15393;SDS011;7795;47.986;11.868;2023-06-24T09:16:24;2.43;;;2.13;;
15393;SDS011;7795;47.986;11.868;2023-06-24T09:18:51;3.55;;;2.45;;
15393;SDS011;7795;47.986;11.868;2023-06-24T09:21:21;3.67;;;2.65;;
15393;SDS011;7795;47.986;11.868;2023-06-24T09:23:53;3.38;;;2.38;;
15393;SDS011;7795;47.986;11.868;2023-06-24T09:26:19;2.33;;;2.10;;
15393;SDS011;7795;47.986;11.868;2023-06-24T09:28:48;3.00;;;2.35;;
15393;SDS011;7795;47.986;11.868;2023-06-24T09:31:14;3.38;;;2.15;;
15393;SDS011;7795;47.986;11.868;2023-06-24T09:33:40;2.10;;;1.90;;
15393;SDS011;7795;47.986;11.868;2023-06-24T09:36:06;2.53;;;2.20;;
15393;SDS011;7795;47.986;11.868;2023-06-24T09:38:36;2.67;;;2.13;;
15393;SDS011;7795;47.986;11.868;2023-06-24T09:41:03;2.33;;;2.13;;
15393;SDS011;7795;47.986;11.868;2023-06-24T09:43:30;3.70;;;1.90;;
15393;SDS011;7795;47.986;11.868;2023-06-24T09:45:57;2.70;;;2.50;;
15393;SDS011;7795;47.986;11.868;2023-06-24T09:48:24;2.87;;;2.10;;
15393;SDS011;7795;47.986;11.868;2023-06-24T09:50:49;3.33;;;2.47;;
15393;SDS011;7795;47.986;11.868;2023-06-24T09:53:16;3.20;;;2.90;;
15393;SDS011;7795;47.986;11.868;2023-06-24T09:55:43;3.78;;;2.80;;
15393;SDS011;7795;47.986;11.868;2023-06-24T09:58:12;3.37;;;2.77;;
15393;SDS011;7795;47.986;11.868;2023-06-24T10:00:38;2.83;;;2.53;;
15393;SDS011;7795;47.986;11.868;2023-06-24T10:03:06;3.95;;;2.80;;
15393;SDS011;7795;47.986;11.868;2023-06-24T10:05:32;4.68;;;2.60;;
15393;SDS011;7795;47.986;11.868;2023-06-24T10:07:58;4.88;;;2.60;;
15393;SDS011;7795;47.986;11.868;2023-06-24T10:10:24;2.50;;;2.30;;
15393;SDS011;7795;47.986;11.868;2023-06-24T10:12:50;4.70;;;2.47;;
15393;SDS011;7795;47.986;11.868;2023-06-24T10:15:16;2.20;;;2.00;;
15393;SDS011;7795;47.986;11.868;2023-06-24T10:17:41;3.10;;;2.60;;
15393;SDS011;7795;47.986;11.868;2023-06-24T10:20:11;3.22;;;2.63;;
15393;SDS011;7795;47.986;11.868;2023-06-24T10:22:38;3.15;;;2.67;;
15393;SDS011;7795;47.986;11.868;2023-06-24T10:25:05;2.70;;;2.20;;
15393;SDS011;7795;47.986;11.868;2023-06-24T10:27:38;2.38;;;2.17;;
15393;SDS011;7795;47.986;11.868;2023-06-24T10:30:04;2.97;;;2.53;;
15393;SDS011;7795;47.986;11.868;2023-06-24T10:32:39;2.55;;;2.35;;
15393;SDS011;7795;47.986;11.868;2023-06-24T10:35:06;3.20;;;2.67;;
15393;SDS011;7795;47.986;11.868;2023-06-24T10:37:34;3.03;;;2.72;;
15393;SDS011;7795;47.986;11.868;2023-06-24T10:39:59;2.20;;;2.00;;
15393;SDS011;7795;47.986;11.868;2023-06-24T10:42:26;2.50;;;2.30;;
15393;SDS011;7795;47.986;11.868;2023-06-24T10:45:12;2.83;;;2.22;;
15393;SDS011;7795;47.986;11.868;2023-06-24T10:47:43;2.85;;;2.17;;
15393;SDS011;7795;47.986;11.868;2023-06-24T10:50:10;3.45;;;2.40;;
15393;SDS011;7795;47.986;11.868;2023-06-24T10:52:39;2.38;;;2.17;;
15393;SDS011;7795;47.986;11.868;2023-06-24T10:55:08;2.58;;;2.38;;
15393;SDS011;7795;47.986;11.868;2023-06-24T10:57:34;2.92;;;2.42;;
15393;SDS011;7795;47.986;11.868;2023-06-24T11:00:01;2.25;;;2.05;;
15393;SDS011;7795;47.986;11.868;2023-06-24T11:02:28;4.25;;;3.95;;
15393;SDS011;7795;47.986;11.868;2023-06-24T11:04:54;2.88;;;2.42;;
15393;SDS011;7795;47.986;11.868;2023-06-24T11:07:22;2.63;;;2.30;;
15393;SDS011;7795;47.986;11.868;2023-06-24T11:09:50;2.25;;;2.05;;
15393;SDS011;7795;47.986;11.868;2023-06-24T11:12:16;3.50;;;2.65;;
15393;SDS011;7795;47.986;11.868;2023-06-24T11:14:42;2.50;;;2.30;;
15393;SDS011;7795;47.986;11.868;2023-06-24T11:17:08;2.50;;;2.30;;
15393;SDS011;7795;47.986;11.868;2023-06-24T11:19:34;2.95;;;2.58;;
15393;SDS011;7795;47.986;11.868;2023-06-24T11:22:04;2.45;;;2.25;;
15393;SDS011;7795;47.986;11.868;2023-06-24T11:24:30;2.95;;;2.40;;
15393;SDS011;7795;47.986;11.868;2023-06-24T11:26:57;2.92;;;2.35;;
15393;SDS011;7795;47.986;11.868;2023-06-24T11:29:23;3.03;;;2.50;;
15393;SDS011;7795;47.986;11.868;2023-06-24T11:31:49;2.60;;;2.40;;
15393;SDS011;7795;47.986;11.868;2023-06-24T11:34:15;3.15;;;2.30;;
15393;SDS011;7795;47.986;11.868;2023-06-24T11:36:51;3.38;;;2.78;;
15393;SDS011;7795;47.986;11.868;2023-06-24T11:39:20;3.03;;;2.55;;
15393;SDS011;7795;47.986;11.868;2023-06-24T11:41:47;2.67;;;2.30;;
15393;SDS011;7795;47.986;11.868;2023-06-24T11:44:21;4.85;;;3.17;;
15393;SDS011;7795;47.986;11.868;2023-06-24T11:46:48;2.42;;;2.22;;
15393;SDS011;7795;47.986;11.868;2023-06-24T11:49:14;3.05;;;2.22;;
15393;SDS011;7795;47.986;11.868;2023-06-24T11:51:45;2.72;;;2.40;;
15393;SDS011;7795;47.986;11.868;2023-06-24T11:54:13;4.05;;;2.25;;
15393;SDS011;7795;47.986;11.868;2023-06-24T11:56:41;2.97;;;2.25;;
15393;SDS011;7795;47.986;11.868;2023-06-24T11:59:14;5.18;;;2.70;;
15393;SDS011;7795;47.986;11.868;2023-06-24T12:01:45;3.90;;;2.58;;
15393;SDS011;7795;47.986;11.868;2023-06-24T12:04:17;2.70;;;2.33;;
15393;SDS011;7795;47.986;11.868;2023-06-24T12:06:43;2.63;;;2.42;;
15393;SDS011;7795;47.986;11.868;2023-06-24T12:09:09;2.60;;;2.30;;
15393;SDS011;7795;47.986;11.868;2023-06-24T12:11:36;3.30;;;2.65;;
15393;SDS011;7795;47.986;11.868;2023-06-24T12:14:02;3.30;;;2.55;;
15393;SDS011;7795;47.986;11.868;2023-06-24T12:16:30;3.03;;;2.60;;
15393;SDS011;7795;47.986;11.868;2023-06-24T12:18:57;2.42;;;2.15;;
15393;SDS011;7795;47.986;11.868;2023-06-24T12:21:23;2.40;;;2.20;;
15393;SDS011;7795;47.986;11.868;2023-06-24T12:23:49;2.28;;;2.00;;
15393;SDS011;7795;47.986;11.868;2023-06-24T12:26:14;2.60;;;2.40;;
15393;SDS011;7795;47.986;11.868;2023-06-24T12:28:41;2.75;;;2.33;;
15393;SDS011;7795;47.986;11.868;2023-06-24T12:31:06;2.55;;;2.25;;
15393;SDS011;7795;47.986;11.868;2023-06-24T12:33:32;3.28;;;2.20;;
15393;SDS011;7795;47.986;11.868;2023-06-24T12:35:59;3.35;;;2.30;;
15393;SDS011;7795;47.986;11.868;2023-06-24T12:38:25;2.88;;;2.58;;
15393;SDS011;7795;47.986;11.868;2023-06-24T12:40:51;2.28;;;2.08;;
15393;SDS011;7795;47.986;11.868;2023-06-24T12:43:17;2.55;;;2.17;;
15393;SDS011;7795;47.986;11.868;2023-06-24T12:45:43;2.22;;;1.98;;
15393;SDS011;7795;47.986;11.868;2023-06-24T12:48:09;2.85;;;2.47;;
15393;SDS011;7795;47.986;11.868;2023-06-24T12:50:35;3.15;;;2.85;;
15393;SDS011;7795;47.986;11.868;2023-06-24T12:53:02;2.42;;;2.22;;
15393;SDS011;7795;47.986;11.868;2023-06-24T12:55:28;2.42;;;2.22;;
15393;SDS011;7795;47.986;11.868;2023-06-24T12:57:54;2.08;;;1.88;;
15393;SDS011;7795;47.986;11.868;2023-06-24T13:00:20;3.90;;;2.38;;
15393;SDS011;7795;47.986;11.868;2023-06-24T13:02:46;2.83;;;2.17;;
15393;SDS011;7795;47.986;11.868;2023-06-24T13:05:12;2.33;;;2.13;;
15393;SDS011;7795;47.986;11.868;2023-06-24T13:07:38;2.40;;;2.20;;
15393;SDS011;7795;47.986;11.868;2023-06-24T13:10:06;2.50;;;2.00;;
15393;SDS011;7795;47.986;11.868;2023-06-24T13:12:32;2.70;;;2.03;;
15393;SDS011;7795;47.986;11.868;2023-06-24T13:14:58;2.58;;;2.30;;
15393;SDS011;7795;47.986;11.868;2023-06-24T13:17:24;3.22;;;2.92;;
15393;SDS011;7795;47.986;11.868;2023-06-24T13:19:50;2.63;;;2.33;;
15393;SDS011;7795;47.986;11.868;2023-06-24T13:22:16;2.65;;;2.45;;
15393;SDS011;7795;47.986;11.868;2023-06-24T13:24:42;2.33;;;2.08;;
15393;SDS011;7795;47.986;11.868;2023-06-24T13:27:09;2.60;;;2.28;;
15393;SDS011;7795;47.986;11.868;2023-06-24T13:29:35;2.33;;;2.13;;
15393;SDS011;7795;47.986;11.868;2023-06-24T13:32:01;2.60;;;2.33;;
15393;SDS011;7795;47.986;11.868;2023-06-24T13:34:27;3.95;;;2.38;;
15393;SDS011;7795;47.986;11.868;2023-06-24T13:36:52;2.95;;;2.60;;
15393;SDS011;7795;47.986;11.868;2023-06-24T13:39:19;3.08;;;2.13;;
15393;SDS011;7795;47.986;11.868;2023-06-24T13:41:48;2.83;;;2.28;;
15393;SDS011;7795;47.986;11.868;2023-06-24T13:44:16;2.50;;;2.30;;
15393;SDS011;7795;47.986;11.868;2023-06-24T13:46:42;2.30;;;2.10;;
15393;SDS011;7795;47.986;11.868;2023-06-24T13:49:07;3.55;;;2.22;;
15393;SDS011;7795;47.986;11.868;2023-06-24T13:51:33;2.95;;;2.30;;
15393;SDS011;7795;47.986;11.868;2023-06-24T13:53:59;2.20;;;1.80;;
15393;SDS011;7795;47.986;11.868;2023-06-24T13:56:26;1.98;;;1.77;;
15393;SDS011;7795;47.986;11.868;2023-06-24T13:58:52;2.55;;;2.25;;
15393;SDS011;7795;47.986;11.868;2023-06-24T14:01:20;2.28;;;2.08;;
15393;SDS011;7795;47.986;11.868;2023-06-24T14:03:46;2.15;;;1.95;;
15393;SDS011;7795;47.986;11.868;2023-06-24T14:06:13;2.40;;;2.20;;
15393;SDS011;7795;47.986;11.868;2023-06-24T14:08:40;3.22;;;1.90;;
15393;SDS011;7795;47.986;11.868;2023-06-24T14:11:07;3.13;;;2.70;;
15393;SDS011;7795;47.986;11.868;2023-06-24T14:13:33;4.30;;;2.85;;
15393;SDS011;7795;47.986;11.868;2023-06-24T14:15:58;3.45;;;2.65;;
15393;SDS011;7795;47.986;11.868;2023-06-24T14:18:26;2.20;;;2.00;;
15393;SDS011;7795;47.986;11.868;2023-06-24T14:20:51;3.08;;;2.58;;
15393;SDS011;7795;47.986;11.868;2023-06-24T14:23:17;3.05;;;2.30;;
15393;SDS011;7795;47.986;11.868;2023-06-24T14:25:43;2.13;;;1.92;;
15393;SDS011;7795;47.986;11.868;2023-06-24T14:28:09;3.20;;;2.47;;
15393;SDS011;7795;47.986;11.868;2023-06-24T14:30:34;2.40;;;2.20;;
15393;SDS011;7795;47.986;11.868;2023-06-24T14:33:00;3.60;;;2.28;;
15393;SDS011;7795;47.986;11.868;2023-06-24T14:35:27;2.65;;;1.95;;
15393;SDS011;7795;47.986;11.868;2023-06-24T14:37:53;2.75;;;2.15;;
15393;SDS011;7795;47.986;11.868;2023-06-24T14:40:19;2.40;;;2.20;;
15393;SDS011;7795;47.986;11.868;2023-06-24T14:42:45;2.47;;;2.28;;
15393;SDS011;7795;47.986;11.868;2023-06-24T14:45:11;3.25;;;2.25;;
15393;SDS011;7795;47.986;11.868;2023-06-24T14:47:36;3.05;;;2.10;;
15393;SDS011;7795;47.986;11.868;2023-06-24T14:50:02;3.17;;;2.47;;